sensor_id;sensor_type;location;lat;lon;timestamp;P1;P2;P0
75960;PMS7003;64644;48.914;2.254;2023-11-21T00:01:44;7.75;7.75;6.00
75960;PMS7003;64644;48.914;2.254;2023-11-21T00:04:09;8.75;6.75;5.75
75960;PMS7003;64644;48.914;2.254;2023-11-21T00:06:34;3.00;3.00;2.00
75960;PMS7003;64644;48.914;2.254;2023-11-21T00:09:00;11.25;9.25;5.00
75960;PMS7003;64644;48.914;2.254;2023-11-21T00:11:25;7.25;7.00;5.00
75960;PMS7003;64644;48.914;2.254;2023-11-21T00:13:50;9.75;7.75;6.50
75960;PMS7003;64644;48.914;2.254;2023-11-21T00:16:16;7.50;7.50;5.25
75960;PMS7003;64644;48.914;2.254;2023-11-21T00:18:41;7.75;7.75;5.00
75960;PMS7003;64644;48.914;2.254;2023-11-21T00:21:07;8.25;8.25;5.50
75960;PMS7003;64644;48.914;2.254;2023-11-21T00:23:33;6.50;6.50;5.00
75960;PMS7003;64644;48.914;2.254;2023-11-21T00:25:59;7.00;7.00;5.00
75960;PMS7003;64644;48.914;2.254;2023-11-21T00:28:24;8.50;6.00;3.00
75960;PMS7003;64644;48.914;2.254;2023-11-21T00:30:50;7.50;7.50;6.00
75960;PMS7003;64644;48.914;2.254;2023-11-21T00:33:16;6.75;5.75;4.50
75960;PMS7003;64644;48.914;2.254;2023-11-21T00:35:41;7.50;6.00;5.50
75960;PMS7003;64644;48.914;2.254;2023-11-21T00:38:06;5.75;5.75;5.00
75960;PMS7003;64644;48.914;2.254;2023-11-21T00:40:33;7.00;7.00;5.00
75960;PMS7003;64644;48.914;2.254;2023-11-21T00:42:58;9.50;7.00;5.25
75960;PMS7003;64644;48.914;2.254;2023-11-21T00:45:24;10.75;9.75;6.00
75960;PMS7003;64644;48.914;2.254;2023-11-21T00:47:49;10.00;8.00;5.00
75960;PMS7003;64644;48.914;2.254;2023-11-21T00:50:15;5.00;5.00;3.00
75960;PMS7003;64644;48.914;2.254;2023-11-21T00:52:40;8.75;7.50;6.00
75960;PMS7003;64644;48.914;2.254;2023-11-21T00:55:06;7.00;6.50;5.25
75960;PMS7003;64644;48.914;2.254;2023-11-21T00:57:32;6.25;5.75;4.50
75960;PMS7003;64644;48.914;2.254;2023-11-21T00:59:58;8.25;7.00;5.25
75960;PMS7003;64644;48.914;2.254;2023-11-21T01:02:23;6.50;6.25;5.00
75960;PMS7003;64644;48.914;2.254;2023-11-21T01:04:49;7.00;7.00;5.00
75960;PMS7003;64644;48.914;2.254;2023-11-21T01:07:14;7.50;6.75;4.50
75960;PMS7003;64644;48.914;2.254;2023-11-21T01:09:39;11.50;10.50;6.00
75960;PMS7003;64644;48.914;2.254;2023-11-21T01:12:05;6.00;6.00;3.00
75960;PMS7003;64644;48.914;2.254;2023-11-21T01:14:30;7.00;7.00;5.00
75960;PMS7003;64644;48.914;2.254;2023-11-21T01:16:55;9.00;9.00;5.25
75960;PMS7003;64644;48.914;2.254;2023-11-21T01:19:21;8.75;7.25;5.00
75960;PMS7003;64644;48.914;2.254;2023-11-21T01:21:46;7.00;6.25;4.50
75960;PMS7003;64644;48.914;2.254;2023-11-21T01:24:12;7.00;7.00;5.00
75960;PMS7003;64644;48.914;2.254;2023-11-21T01:26:37;12.00;10.75;6.25
75960;PMS7003;64644;48.914;2.254;2023-11-21T01:29:02;10.00;7.75;6.00
75960;PMS7003;64644;48.914;2.254;2023-11-21T01:41:47;10.75;7.75;6.25
75960;PMS7003;64644;48.914;2.254;2023-11-21T01:44:12;6.00;6.00;4.00
75960;PMS7003;64644;48.914;2.254;2023-11-21T01:46:38;6.00;6.00;4.50
75960;PMS7003;64644;48.914;2.254;2023-11-21T01:49:04;9.75;9.75;5.50
75960;PMS7003;64644;48.914;2.254;2023-11-21T01:51:30;6.25;6.00;5.00
75960;PMS7003;64644;48.914;2.254;2023-11-21T01:53:56;7.00;6.00;5.25
75960;PMS7003;64644;48.914;2.254;2023-11-21T01:56:21;5.00;5.00;3.00
75960;PMS7003;64644;48.914;2.254;2023-11-21T01:58:47;4.50;2.00;1.75
75960;PMS7003;64644;48.914;2.254;2023-11-21T02:01:12;4.00;4.00;3.00
75960;PMS7003;64644;48.914;2.254;2023-11-21T02:03:39;8.00;7.00;5.00
75960;PMS7003;64644;48.914;2.254;2023-11-21T02:06:05;6.00;3.00;3.00
75960;PMS7003;64644;48.914;2.254;2023-11-21T02:08:30;6.00;5.50;4.00
75960;PMS7003;64644;48.914;2.254;2023-11-21T02:10:56;8.50;6.00;5.00
75960;PMS7003;64644;48.914;2.254;2023-11-21T02:13:22;5.50;5.50;2.75
75960;PMS7003;64644;48.914;2.254;2023-11-21T02:15:47;5.25;4.00;2.50
75960;PMS7003;64644;48.914;2.254;2023-11-21T02:18:17;5.00;5.00;3.00
75960;PMS7003;64644;48.914;2.254;2023-11-21T02:20:42;3.50;3.00;2.00
75960;PMS7003;64644;48.914;2.254;2023-11-21T02:23:08;9.00;7.00;5.00
75960;PMS7003;64644;48.914;2.254;2023-11-21T02:25:33;8.50;6.75;4.00
75960;PMS7003;64644;48.914;2.254;2023-11-21T02:28:00;4.00;2.50;2.00
75960;PMS7003;64644;48.914;2.254;2023-11-21T02:30:26;6.00;5.00;3.00
75960;PMS7003;64644;48.914;2.254;2023-11-21T02:32:58;5.50;5.50;3.00
75960;PMS7003;64644;48.914;2.254;2023-11-21T02:35:23;5.25;4.50;3.00
75960;PMS7003;64644;48.914;2.254;2023-11-21T02:37:51;2.25;2.25;1.75
75960;PMS7003;64644;48.914;2.254;2023-11-21T02:40:16;5.25;5.25;4.00
75960;PMS7003;64644;48.914;2.254;2023-11-21T02:42:43;6.00;6.00;4.00
75960;PMS7003;64644;48.914;2.254;2023-11-21T02:45:09;7.25;7.25;5.00
75960;PMS7003;64644;48.914;2.254;2023-11-21T02:47:38;5.25;5.25;3.50
75960;PMS7003;64644;48.914;2.254;2023-11-21T02:50:04;7.00;5.75;4.00
75960;PMS7003;64644;48.914;2.254;2023-11-21T02:52:31;5.00;3.00;2.00
75960;PMS7003;64644;48.914;2.254;2023-11-21T02:54:58;6.00;3.50;2.75
75960;PMS7003;64644;48.914;2.254;2023-11-21T02:57:23;5.25;5.25;3.00
75960;PMS7003;64644;48.914;2.254;2023-11-21T02:59:49;5.75;5.75;3.00
75960;PMS7003;64644;48.914;2.254;2023-11-21T03:02:15;5.75;5.50;2.75
75960;PMS7003;64644;48.914;2.254;2023-11-21T03:04:40;7.00;6.50;5.00
75960;PMS7003;64644;48.914;2.254;2023-11-21T03:07:07;6.50;5.00;3.00
75960;PMS7003;64644;48.914;2.254;2023-11-21T03:09:33;9.50;5.75;2.25
75960;PMS7003;64644;48.914;2.254;2023-11-21T03:11:59;5.50;5.00;3.00
75960;PMS7003;64644;48.914;2.254;2023-11-21T03:14:24;8.75;8.00;5.75
75960;PMS7003;64644;48.914;2.254;2023-11-21T03:16:49;5.75;5.00;3.00
75960;PMS7003;64644;48.914;2.254;2023-11-21T03:19:15;6.75;6.00;3.00
75960;PMS7003;64644;48.914;2.254;2023-11-21T03:21:40;6.75;5.75;3.00
75960;PMS7003;64644;48.914;2.254;2023-11-21T03:24:06;5.25;5.00;3.50
75960;PMS7003;64644;48.914;2.254;2023-11-21T03:26:32;6.00;5.75;3.00
75960;PMS7003;64644;48.914;2.254;2023-11-21T03:28:57;7.00;7.00;4.50
75960;PMS7003;64644;48.914;2.254;2023-11-21T03:31:23;7.25;5.00;2.75
75960;PMS7003;64644;48.914;2.254;2023-11-21T03:33:48;3.00;3.00;2.00
75960;PMS7003;64644;48.914;2.254;2023-11-21T03:36:13;10.00;8.50;6.00
75960;PMS7003;64644;48.914;2.254;2023-11-21T03:38:43;10.00;5.50;4.50
75960;PMS7003;64644;48.914;2.254;2023-11-21T03:41:08;6.00;6.00;5.00
75960;PMS7003;64644;48.914;2.254;2023-11-21T03:43:37;7.50;5.75;3.00
75960;PMS7003;64644;48.914;2.254;2023-11-21T03:46:02;9.00;6.00;5.00
75960;PMS7003;64644;48.914;2.254;2023-11-21T03:48:28;6.00;5.50;4.00
75960;PMS7003;64644;48.914;2.254;2023-11-21T03:50:53;6.50;6.00;5.00
75960;PMS7003;64644;48.914;2.254;2023-11-21T03:53:19;6.00;6.00;3.50
75960;PMS7003;64644;48.914;2.254;2023-11-21T03:55:44;5.00;3.00;3.00
75960;PMS7003;64644;48.914;2.254;2023-11-21T03:58:09;5.75;5.75;4.00
75960;PMS7003;64644;48.914;2.254;2023-11-21T04:00:35;4.50;4.50;3.00
75960;PMS7003;64644;48.914;2.254;2023-11-21T04:03:00;4.00;4.00;3.00
75960;PMS7003;64644;48.914;2.254;2023-11-21T04:05:25;6.25;6.25;5.25
75960;PMS7003;64644;48.914;2.254;2023-11-21T04:07:50;6.25;4.00;3.00
75960;PMS7003;64644;48.914;2.254;2023-11-21T04:10:16;3.50;3.50;2.00
75960;PMS7003;64644;48.914;2.254;2023-11-21T04:12:42;7.50;6.50;3.50
75960;PMS7003;64644;48.914;2.254;2023-11-21T04:15:08;6.25;6.25;4.00
75960;PMS7003;64644;48.914;2.254;2023-11-21T04:17:34;7.00;7.00;6.25
75960;PMS7003;64644;48.914;2.254;2023-11-21T04:20:00;9.50;6.50;2.75
75960;PMS7003;64644;48.914;2.254;2023-11-21T04:22:25;6.00;6.00;5.00
75960;PMS7003;64644;48.914;2.254;2023-11-21T04:24:51;7.50;7.00;3.00
75960;PMS7003;64644;48.914;2.254;2023-11-21T04:27:16;5.25;5.25;3.00
75960;PMS7003;64644;48.914;2.254;2023-11-21T04:29:43;8.25;8.25;5.50
75960;PMS7003;64644;48.914;2.254;2023-11-21T04:32:09;5.00;4.50;3.00
75960;PMS7003;64644;48.914;2.254;2023-11-21T04:34:34;10.25;7.00;6.00
75960;PMS7003;64644;48.914;2.254;2023-11-21T04:37:00;7.25;7.25;4.00
75960;PMS7003;64644;48.914;2.254;2023-11-21T04:39:25;10.00;7.00;6.00
75960;PMS7003;64644;48.914;2.254;2023-11-21T04:41:50;8.00;8.00;5.25
75960;PMS7003;64644;48.914;2.254;2023-11-21T04:44:16;7.25;7.25;6.25
75960;PMS7003;64644;48.914;2.254;2023-11-21T04:46:42;11.50;9.00;6.75
75960;PMS7003;64644;48.914;2.254;2023-11-21T04:49:07;10.00;9.00;7.00
75960;PMS7003;64644;48.914;2.254;2023-11-21T04:51:32;11.50;10.00;6.00
75960;PMS7003;64644;48.914;2.254;2023-11-21T04:53:58;9.00;9.00;6.25
75960;PMS7003;64644;48.914;2.254;2023-11-21T04:56:23;10.50;9.25;6.25
75960;PMS7003;64644;48.914;2.254;2023-11-21T04:58:49;11.00;10.25;6.50
75960;PMS7003;64644;48.914;2.254;2023-11-21T05:01:15;13.75;11.00;7.00
75960;PMS7003;64644;48.914;2.254;2023-11-21T05:03:40;11.00;11.00;6.75
75960;PMS7003;64644;48.914;2.254;2023-11-21T05:06:06;9.75;9.00;6.75
75960;PMS7003;64644;48.914;2.254;2023-11-21T05:08:34;15.00;10.75;7.00
75960;PMS7003;64644;48.914;2.254;2023-11-21T05:10:59;10.50;10.25;6.50
75960;PMS7003;64644;48.914;2.254;2023-11-21T05:13:25;10.50;10.50;7.50
75960;PMS7003;64644;48.914;2.254;2023-11-21T05:15:53;9.00;9.00;5.75
75960;PMS7003;64644;48.914;2.254;2023-11-21T05:18:19;8.75;8.75;6.00
75960;PMS7003;64644;48.914;2.254;2023-11-21T05:20:44;10.75;10.50;7.00
75960;PMS7003;64644;48.914;2.254;2023-11-21T05:23:10;11.75;9.00;6.00
75960;PMS7003;64644;48.914;2.254;2023-11-21T05:25:35;10.00;10.00;6.00
75960;PMS7003;64644;48.914;2.254;2023-11-21T05:28:01;11.25;9.75;7.00
75960;PMS7003;64644;48.914;2.254;2023-11-21T05:30:27;7.50;7.00;5.00
75960;PMS7003;64644;48.914;2.254;2023-11-21T05:32:53;10.00;9.75;6.25
75960;PMS7003;64644;48.914;2.254;2023-11-21T05:35:18;7.75;7.50;5.25
75960;PMS7003;64644;48.914;2.254;2023-11-21T05:37:44;11.00;10.00;7.00
75960;PMS7003;64644;48.914;2.254;2023-11-21T05:40:10;9.50;9.50;7.00
75960;PMS7003;64644;48.914;2.254;2023-11-21T05:42:36;11.75;10.00;5.75
75960;PMS7003;64644;48.914;2.254;2023-11-21T05:45:03;10.50;10.25;5.50
75960;PMS7003;64644;48.914;2.254;2023-11-21T05:47:38;9.25;8.75;6.00
75960;PMS7003;64644;48.914;2.254;2023-11-21T05:50:05;9.50;9.50;6.75
75960;PMS7003;64644;48.914;2.254;2023-11-21T05:52:34;10.75;10.75;7.50
75960;PMS7003;64644;48.914;2.254;2023-11-21T05:55:00;13.00;10.25;7.00
75960;PMS7003;64644;48.914;2.254;2023-11-21T05:57:25;11.50;10.75;7.25
75960;PMS7003;64644;48.914;2.254;2023-11-21T05:59:50;14.75;14.75;7.00
75960;PMS7003;64644;48.914;2.254;2023-11-21T06:02:16;15.00;12.50;7.50
75960;PMS7003;64644;48.914;2.254;2023-11-21T06:04:41;13.75;13.00;6.00
75960;PMS7003;64644;48.914;2.254;2023-11-21T06:07:08;10.00;10.00;7.00
75960;PMS7003;64644;48.914;2.254;2023-11-21T06:09:33;14.50;14.00;9.50
75960;PMS7003;64644;48.914;2.254;2023-11-21T06:11:59;10.75;10.25;6.75
75960;PMS7003;64644;48.914;2.254;2023-11-21T06:14:24;15.00;11.33;7.33
75960;PMS7003;64644;48.914;2.254;2023-11-21T06:16:50;12.25;10.00;6.75
75960;PMS7003;64644;48.914;2.254;2023-11-21T06:19:17;11.25;11.00;7.00
75960;PMS7003;64644;48.914;2.254;2023-11-21T06:21:45;9.25;9.25;7.75
75960;PMS7003;64644;48.914;2.254;2023-11-21T06:24:11;10.75;10.75;5.25
75960;PMS7003;64644;48.914;2.254;2023-11-21T06:26:37;10.25;10.00;6.25
75960;PMS7003;64644;48.914;2.254;2023-11-21T06:29:03;10.00;9.00;6.00
75960;PMS7003;64644;48.914;2.254;2023-11-21T06:31:30;7.00;6.00;5.00
75960;PMS7003;64644;48.914;2.254;2023-11-21T06:33:57;11.75;10.50;7.00
75960;PMS7003;64644;48.914;2.254;2023-11-21T06:36:24;11.50;10.75;6.00
75960;PMS7003;64644;48.914;2.254;2023-11-21T06:38:51;8.00;8.00;5.75
75960;PMS7003;64644;48.914;2.254;2023-11-21T06:41:16;9.75;7.75;5.75
75960;PMS7003;64644;48.914;2.254;2023-11-21T06:43:42;9.50;9.50;6.00
75960;PMS7003;64644;48.914;2.254;2023-11-21T06:46:11;10.00;7.50;6.75
75960;PMS7003;64644;48.914;2.254;2023-11-21T06:48:39;11.00;9.25;6.00
75960;PMS7003;64644;48.914;2.254;2023-11-21T06:51:07;9.75;7.00;5.00
75960;PMS7003;64644;48.914;2.254;2023-11-21T06:53:32;9.25;8.25;7.00
75960;PMS7003;64644;48.914;2.254;2023-11-21T06:55:57;8.25;8.25;6.25
75960;PMS7003;64644;48.914;2.254;2023-11-21T06:58:23;12.67;10.00;7.00
75960;PMS7003;64644;48.914;2.254;2023-11-21T07:00:48;6.00;5.75;5.25
75960;PMS7003;64644;48.914;2.254;2023-11-21T07:03:15;11.50;8.25;5.25
75960;PMS7003;64644;48.914;2.254;2023-11-21T07:05:40;6.25;6.25;5.00
75960;PMS7003;64644;48.914;2.254;2023-11-21T07:08:06;8.50;7.00;5.50
75960;PMS7003;64644;48.914;2.254;2023-11-21T07:10:32;8.25;7.25;6.00
75960;PMS7003;64644;48.914;2.254;2023-11-21T07:12:58;9.50;7.00;5.00
75960;PMS7003;64644;48.914;2.254;2023-11-21T07:18:40;7.75;7.25;5.00
75960;PMS7003;64644;48.914;2.254;2023-11-21T07:21:05;11.25;10.00;6.25
75960;PMS7003;64644;48.914;2.254;2023-11-21T07:23:40;10.75;10.75;6.00
75960;PMS7003;64644;48.914;2.254;2023-11-21T07:26:07;10.75;9.75;6.00
75960;PMS7003;64644;48.914;2.254;2023-11-21T07:28:35;10.00;10.00;7.00
75960;PMS7003;64644;48.914;2.254;2023-11-21T07:31:00;12.00;9.75;5.00
75960;PMS7003;64644;48.914;2.254;2023-11-21T07:33:26;10.00;8.50;6.25
75960;PMS7003;64644;48.914;2.254;2023-11-21T07:35:51;15.33;12.00;8.33
75960;PMS7003;64644;48.914;2.254;2023-11-21T07:38:17;15.25;11.00;6.50
75960;PMS7003;64644;48.914;2.254;2023-11-21T07:40:43;13.50;11.00;7.25
75960;PMS7003;64644;48.914;2.254;2023-11-21T07:43:08;13.50;10.75;7.00
75960;PMS7003;64644;48.914;2.254;2023-11-21T07:45:34;13.50;11.75;6.00
75960;PMS7003;64644;48.914;2.254;2023-11-21T07:48:00;14.75;12.00;7.25
75960;PMS7003;64644;48.914;2.254;2023-11-21T07:50:28;11.75;10.25;7.00
75960;PMS7003;64644;48.914;2.254;2023-11-21T07:52:53;12.00;9.75;7.00
75960;PMS7003;64644;48.914;2.254;2023-11-21T07:55:19;9.25;7.00;4.00
75960;PMS7003;64644;48.914;2.254;2023-11-21T07:57:44;14.00;12.00;7.75
75960;PMS7003;64644;48.914;2.254;2023-11-21T08:00:10;14.75;11.00;7.00
75960;PMS7003;64644;48.914;2.254;2023-11-21T08:02:37;11.00;9.75;6.00
75960;PMS7003;64644;48.914;2.254;2023-11-21T08:05:03;11.25;11.25;7.50
75960;PMS7003;64644;48.914;2.254;2023-11-21T08:07:29;16.50;15.50;10.00
75960;PMS7003;64644;48.914;2.254;2023-11-21T08:09:54;11.67;11.67;8.33
75960;PMS7003;64644;48.914;2.254;2023-11-21T08:12:19;13.33;11.00;8.00
75960;PMS7003;64644;48.914;2.254;2023-11-21T08:14:45;14.50;13.00;7.00
75960;PMS7003;64644;48.914;2.254;2023-11-21T08:17:10;16.75;12.25;8.25
75960;PMS7003;64644;48.914;2.254;2023-11-21T08:19:36;11.50;10.50;8.25
75960;PMS7003;64644;48.914;2.254;2023-11-21T08:22:02;15.50;13.25;9.50
75960;PMS7003;64644;48.914;2.254;2023-11-21T08:24:28;14.25;10.75;6.50
75960;PMS7003;64644;48.914;2.254;2023-11-21T08:26:53;11.75;11.00;8.00
75960;PMS7003;64644;48.914;2.254;2023-11-21T08:29:19;12.00;10.50;6.75
75960;PMS7003;64644;48.914;2.254;2023-11-21T08:31:44;16.00;14.75;9.25
75960;PMS7003;64644;48.914;2.254;2023-11-21T08:34:13;14.25;12.25;8.25
75960;PMS7003;64644;48.914;2.254;2023-11-21T08:36:42;21.75;20.00;11.00
75960;PMS7003;64644;48.914;2.254;2023-11-21T08:39:08;19.50;15.50;10.00
75960;PMS7003;64644;48.914;2.254;2023-11-21T08:41:34;15.75;13.50;9.75
75960;PMS7003;64644;48.914;2.254;2023-11-21T08:43:59;20.25;15.25;8.00
75960;PMS7003;64644;48.914;2.254;2023-11-21T08:46:25;17.50;12.25;8.00
75960;PMS7003;64644;48.914;2.254;2023-11-21T08:48:50;15.00;14.50;9.00
75960;PMS7003;64644;48.914;2.254;2023-11-21T08:51:17;16.00;13.67;9.67
75960;PMS7003;64644;48.914;2.254;2023-11-21T08:53:43;25.50;17.25;11.00
75960;PMS7003;64644;48.914;2.254;2023-11-21T08:56:12;14.75;12.75;9.00
75960;PMS7003;64644;48.914;2.254;2023-11-21T08:58:39;16.50;15.00;10.00
75960;PMS7003;64644;48.914;2.254;2023-11-21T09:01:04;16.00;15.00;10.00
75960;PMS7003;64644;48.914;2.254;2023-11-21T09:03:31;18.50;14.75;10.75
75960;PMS7003;64644;48.914;2.254;2023-11-21T09:05:58;14.25;13.25;10.50
75960;PMS7003;64644;48.914;2.254;2023-11-21T09:08:24;11.00;10.00;8.00
75960;PMS7003;64644;48.914;2.254;2023-11-21T09:10:50;17.25;14.25;10.25
75960;PMS7003;64644;48.914;2.254;2023-11-21T09:13:15;16.50;16.25;11.25
75960;PMS7003;64644;48.914;2.254;2023-11-21T09:15:41;14.25;14.25;10.00
75960;PMS7003;64644;48.914;2.254;2023-11-21T09:18:11;13.25;12.75;10.00
75960;PMS7003;64644;48.914;2.254;2023-11-21T09:20:37;13.75;12.00;8.50
75960;PMS7003;64644;48.914;2.254;2023-11-21T09:23:03;15.25;15.25;11.00
75960;PMS7003;64644;48.914;2.254;2023-11-21T09:25:29;13.00;11.50;8.00
75960;PMS7003;64644;48.914;2.254;2023-11-21T09:27:54;12.00;10.50;7.00
75960;PMS7003;64644;48.914;2.254;2023-11-21T09:30:21;11.75;7.00;5.50
75960;PMS7003;64644;48.914;2.254;2023-11-21T09:32:46;11.00;7.75;6.00
75960;PMS7003;64644;48.914;2.254;2023-11-21T09:35:12;12.75;11.00;7.00
75960;PMS7003;64644;48.914;2.254;2023-11-21T09:37:39;15.50;11.00;6.25
75960;PMS7003;64644;48.914;2.254;2023-11-21T09:40:04;11.00;9.75;6.00
75960;PMS7003;64644;48.914;2.254;2023-11-21T09:42:39;10.50;8.50;5.00
75960;PMS7003;64644;48.914;2.254;2023-11-21T09:45:24;6.50;6.50;6.00
75960;PMS7003;64644;48.914;2.254;2023-11-21T09:47:52;6.00;6.00;3.50
75960;PMS7003;64644;48.914;2.254;2023-11-21T09:50:18;7.00;6.75;5.25
75960;PMS7003;64644;48.914;2.254;2023-11-21T09:55:35;3.75;3.75;2.00
75960;PMS7003;64644;48.914;2.254;2023-11-21T09:58:02;8.50;7.00;5.50
75960;PMS7003;64644;48.914;2.254;2023-11-21T10:00:29;5.75;5.75;4.50
75960;PMS7003;64644;48.914;2.254;2023-11-21T10:02:58;7.00;5.75;3.50
75960;PMS7003;64644;48.914;2.254;2023-11-21T10:05:23;4.00;4.00;2.00
75960;PMS7003;64644;48.914;2.254;2023-11-21T10:07:50;6.25;6.25;3.00
75960;PMS7003;64644;48.914;2.254;2023-11-21T10:10:16;5.25;5.25;3.50
75960;PMS7003;64644;48.914;2.254;2023-11-21T10:12:45;2.75;2.50;2.00
75960;PMS7003;64644;48.914;2.254;2023-11-21T10:15:14;5.50;5.25;2.00
75960;PMS7003;64644;48.914;2.254;2023-11-21T10:17:41;2.25;2.00;1.00
75960;PMS7003;64644;48.914;2.254;2023-11-21T10:20:13;2.00;2.00;2.00
75960;PMS7003;64644;48.914;2.254;2023-11-21T10:22:39;2.75;1.25;0.75
75960;PMS7003;64644;48.914;2.254;2023-11-21T10:25:08;1.25;1.25;1.00
75960;PMS7003;64644;48.914;2.254;2023-11-21T10:27:35;3.00;2.00;1.50
75960;PMS7003;64644;48.914;2.254;2023-11-21T10:30:02;2.00;2.00;1.00
75960;PMS7003;64644;48.914;2.254;2023-11-21T10:32:29;2.50;2.00;1.00
75960;PMS7003;64644;48.914;2.254;2023-11-21T10:34:58;3.00;2.50;1.00
75960;PMS7003;64644;48.914;2.254;2023-11-21T10:37:31;2.25;1.25;1.00
75960;PMS7003;64644;48.914;2.254;2023-11-21T10:39:59;1.00;1.00;0.50
75960;PMS7003;64644;48.914;2.254;2023-11-21T10:42:25;3.25;1.75;0.75
75960;PMS7003;64644;48.914;2.254;2023-11-21T10:44:52;2.00;2.00;0.00
75960;PMS7003;64644;48.914;2.254;2023-11-21T10:47:17;1.00;1.00;1.00
75960;PMS7003;64644;48.914;2.254;2023-11-21T10:49:44;2.25;2.25;1.50
75960;PMS7003;64644;48.914;2.254;2023-11-21T10:52:12;1.75;1.00;1.00
75960;PMS7003;64644;48.914;2.254;2023-11-21T10:54:42;1.25;1.00;1.00
75960;PMS7003;64644;48.914;2.254;2023-11-21T10:57:08;1.00;1.00;0.00
75960;PMS7003;64644;48.914;2.254;2023-11-21T10:59:35;1.00;1.00;1.00
75960;PMS7003;64644;48.914;2.254;2023-11-21T11:02:02;1.00;1.00;1.00
75960;PMS7003;64644;48.914;2.254;2023-11-21T11:04:57;2.00;1.00;1.00
75960;PMS7003;64644;48.914;2.254;2023-11-21T11:07:25;2.00;2.00;1.00
75960;PMS7003;64644;48.914;2.254;2023-11-21T11:09:53;1.75;0.50;0.00
75960;PMS7003;64644;48.914;2.254;2023-11-21T11:12:19;2.00;2.00;1.00
75960;PMS7003;64644;48.914;2.254;2023-11-21T11:14:45;1.00;1.00;0.25
75960;PMS7003;64644;48.914;2.254;2023-11-21T11:17:10;2.00;2.00;1.00
75960;PMS7003;64644;48.914;2.254;2023-11-21T11:19:36;1.00;1.00;1.00
75960;PMS7003;64644;48.914;2.254;2023-11-21T11:25:06;1.00;1.00;0.00
75960;PMS7003;64644;48.914;2.254;2023-11-21T11:27:54;2.00;2.00;1.00
75960;PMS7003;64644;48.914;2.254;2023-11-21T11:38:22;1.50;1.50;1.00
75960;PMS7003;64644;48.914;2.254;2023-11-21T11:40:52;3.00;3.00;2.00
75960;PMS7003;64644;48.914;2.254;2023-11-21T11:43:24;4.50;2.75;1.50
75960;PMS7003;64644;48.914;2.254;2023-11-21T11:45:50;1.00;1.00;1.00
75960;PMS7003;64644;48.914;2.254;2023-11-21T11:48:18;2.00;2.00;2.00
75960;PMS7003;64644;48.914;2.254;2023-11-21T11:53:38;2.00;1.00;1.00
75960;PMS7003;64644;48.914;2.254;2023-11-21T11:58:59;0.50;0.50;0.00
75960;PMS7003;64644;48.914;2.254;2023-11-21T12:01:28;1.50;1.50;1.00
75960;PMS7003;64644;48.914;2.254;2023-11-21T12:07:04;1.00;1.00;1.00
75960;PMS7003;64644;48.914;2.254;2023-11-21T12:09:30;3.00;1.25;1.00
75960;PMS7003;64644;48.914;2.254;2023-11-21T12:11:57;1.00;1.00;1.00
75960;PMS7003;64644;48.914;2.254;2023-11-21T12:14:22;1.00;1.00;0.00
75960;PMS7003;64644;48.914;2.254;2023-11-21T12:16:48;2.00;2.00;1.25
75960;PMS7003;64644;48.914;2.254;2023-11-21T12:19:14;2.50;2.50;2.00
75960;PMS7003;64644;48.914;2.254;2023-11-21T12:21:40;2.75;2.75;1.00
75960;PMS7003;64644;48.914;2.254;2023-11-21T12:24:13;3.00;2.00;1.75
75960;PMS7003;64644;48.914;2.254;2023-11-21T12:26:42;1.00;1.00;1.00
75960;PMS7003;64644;48.914;2.254;2023-11-21T12:29:07;3.25;3.00;2.00
75960;PMS7003;64644;48.914;2.254;2023-11-21T12:31:33;2.00;2.00;1.00
75960;PMS7003;64644;48.914;2.254;2023-11-21T12:33:59;2.00;2.00;2.00
75960;PMS7003;64644;48.914;2.254;2023-11-21T12:36:25;2.00;2.00;1.00
75960;PMS7003;64644;48.914;2.254;2023-11-21T12:38:51;2.50;2.00;1.00
75960;PMS7003;64644;48.914;2.254;2023-11-21T12:41:16;2.00;2.00;1.00
75960;PMS7003;64644;48.914;2.254;2023-11-21T12:43:46;1.00;1.00;1.00
75960;PMS7003;64644;48.914;2.254;2023-11-21T12:46:12;0.50;0.50;0.00
75960;PMS7003;64644;48.914;2.254;2023-11-21T12:48:42;2.50;2.00;1.00
75960;PMS7003;64644;48.914;2.254;2023-11-21T12:51:09;1.75;1.75;0.50
75960;PMS7003;64644;48.914;2.254;2023-11-21T12:53:34;1.75;1.75;1.00
75960;PMS7003;64644;48.914;2.254;2023-11-21T12:56:02;1.00;1.00;1.00
75960;PMS7003;64644;48.914;2.254;2023-11-21T12:58:28;2.00;1.75;1.75
75960;PMS7003;64644;48.914;2.254;2023-11-21T13:00:54;2.50;2.50;2.00
75960;PMS7003;64644;48.914;2.254;2023-11-21T13:03:24;1.50;1.50;1.00
75960;PMS7003;64644;48.914;2.254;2023-11-21T13:05:51;1.50;1.50;1.00
75960;PMS7003;64644;48.914;2.254;2023-11-21T13:08:22;1.00;1.00;1.00
75960;PMS7003;64644;48.914;2.254;2023-11-21T13:10:49;1.75;1.75;1.00
75960;PMS7003;64644;48.914;2.254;2023-11-21T13:13:16;2.00;2.00;1.00
75960;PMS7003;64644;48.914;2.254;2023-11-21T13:15:49;1.00;1.00;1.00
75960;PMS7003;64644;48.914;2.254;2023-11-21T13:18:15;0.00;0.00;0.00
75960;PMS7003;64644;48.914;2.254;2023-11-21T13:20:42;2.00;2.00;1.00
75960;PMS7003;64644;48.914;2.254;2023-11-21T13:23:09;1.00;1.00;1.00
75960;PMS7003;64644;48.914;2.254;2023-11-21T13:25:40;1.00;1.00;1.00
75960;PMS7003;64644;48.914;2.254;2023-11-21T13:28:06;2.00;2.00;1.00
75960;PMS7003;64644;48.914;2.254;2023-11-21T13:30:34;3.00;1.00;0.25
75960;PMS7003;64644;48.914;2.254;2023-11-21T13:33:00;0.50;0.50;0.00
75960;PMS7003;64644;48.914;2.254;2023-11-21T13:35:38;1.00;1.00;0.00
75960;PMS7003;64644;48.914;2.254;2023-11-21T13:38:08;1.75;0.75;0.25
75960;PMS7003;64644;48.914;2.254;2023-11-21T13:40:37;1.00;1.00;0.00
75960;PMS7003;64644;48.914;2.254;2023-11-21T13:43:11;2.00;2.00;1.00
75960;PMS7003;64644;48.914;2.254;2023-11-21T13:45:38;1.00;1.00;0.00
75960;PMS7003;64644;48.914;2.254;2023-11-21T13:48:05;1.00;1.00;0.00
75960;PMS7003;64644;48.914;2.254;2023-11-21T13:50:35;2.00;1.25;1.00
75960;PMS7003;64644;48.914;2.254;2023-11-21T13:53:00;2.25;2.25;1.25
75960;PMS7003;64644;48.914;2.254;2023-11-21T13:55:36;2.00;2.00;1.00
75960;PMS7003;64644;48.914;2.254;2023-11-21T13:58:02;2.00;2.00;1.25
75960;PMS7003;64644;48.914;2.254;2023-11-21T14:00:28;1.25;1.00;1.00
75960;PMS7003;64644;48.914;2.254;2023-11-21T14:03:06;2.75;2.75;1.75
75960;PMS7003;64644;48.914;2.254;2023-11-21T14:05:41;2.00;2.00;2.00
75960;PMS7003;64644;48.914;2.254;2023-11-21T14:08:08;2.00;2.00;1.25
75960;PMS7003;64644;48.914;2.254;2023-11-21T14:10:33;1.75;1.75;1.00
75960;PMS7003;64644;48.914;2.254;2023-11-21T14:13:15;6.25;5.00;2.00
75960;PMS7003;64644;48.914;2.254;2023-11-21T14:15:41;3.75;3.75;2.75
75960;PMS7003;64644;48.914;2.254;2023-11-21T14:18:10;3.00;3.00;2.00
75960;PMS7003;64644;48.914;2.254;2023-11-21T14:20:39;3.75;3.00;2.00
75960;PMS7003;64644;48.914;2.254;2023-11-21T14:23:05;3.00;3.00;2.00
75960;PMS7003;64644;48.914;2.254;2023-11-21T14:25:34;1.00;1.00;1.00
75960;PMS7003;64644;48.914;2.254;2023-11-21T14:28:01;3.00;2.50;2.00
75960;PMS7003;64644;48.914;2.254;2023-11-21T14:30:28;2.25;2.00;2.00
75960;PMS7003;64644;48.914;2.254;2023-11-21T14:32:56;2.00;2.00;1.25
75960;PMS7003;64644;48.914;2.254;2023-11-21T14:35:22;2.00;2.00;2.00
75960;PMS7003;64644;48.914;2.254;2023-11-21T14:37:48;6.50;1.00;1.00
75960;PMS7003;64644;48.914;2.254;2023-11-21T14:40:13;2.00;2.00;1.00
75960;PMS7003;64644;48.914;2.254;2023-11-21T14:42:40;2.75;1.00;1.00
75960;PMS7003;64644;48.914;2.254;2023-11-21T14:45:12;0.00;0.00;0.00
75960;PMS7003;64644;48.914;2.254;2023-11-21T14:47:41;1.00;1.00;1.00
75960;PMS7003;64644;48.914;2.254;2023-11-21T14:50:11;0.00;0.00;0.00